createdAt,value
2022-09-02T00:01:47.019Z,19.41
2022-09-02T00:04:19.397Z,19.33
2022-09-02T00:06:50.193Z,19.21
2022-09-02T00:09:22.437Z,19.16
2022-09-02T00:11:53.529Z,19.09
2022-09-02T00:14:28.258Z,19.03
2022-09-02T00:16:57.060Z,19.00
2022-09-02T00:19:27.736Z,19.07
2022-09-02T00:21:58.576Z,19.08
2022-09-02T00:24:28.150Z,19.10
2022-09-02T00:26:57.087Z,19.11
2022-09-02T00:29:28.937Z,19.11
2022-09-02T00:31:58.344Z,19.10
2022-09-02T00:34:27.736Z,19.21
2022-09-02T00:36:57.052Z,19.16
2022-09-02T00:39:26.386Z,19.12
2022-09-02T00:41:55.677Z,19.17
2022-09-02T00:44:24.530Z,19.12
2022-09-02T00:46:55.029Z,19.14
2022-09-02T00:49:27.549Z,19.12
2022-09-02T00:51:59.026Z,19.15
2022-09-02T00:54:30.685Z,19.26
2022-09-02T00:57:01.652Z,19.49
2022-09-02T00:59:42.533Z,19.38
2022-09-02T01:02:13.679Z,19.42
2022-09-02T01:04:43.363Z,19.63
2022-09-02T01:07:12.766Z,19.64
2022-09-02T01:09:42.019Z,19.61
2022-09-02T01:12:13.022Z,19.54
2022-09-02T01:14:41.960Z,19.45
2022-09-02T01:17:12.532Z,19.18
2022-09-02T01:19:46.096Z,19.21
2022-09-02T01:22:22.292Z,19.21
2022-09-02T01:24:52.292Z,19.14
2022-09-02T01:27:23.676Z,19.28
2022-09-02T01:29:53.841Z,19.30
2022-09-02T01:32:23.541Z,19.35
2022-09-02T01:34:52.437Z,19.45
2022-09-02T01:37:24.005Z,19.40
2022-09-02T01:39:53.595Z,19.48
2022-09-02T01:42:23.267Z,19.43
2022-09-02T01:44:52.557Z,19.44
2022-09-02T01:47:26.690Z,19.42
2022-09-02T01:49:56.381Z,19.50
2022-09-02T01:52:29.286Z,19.50
2022-09-02T01:54:59.145Z,19.61
2022-09-02T01:57:28.137Z,19.62
2022-09-02T01:59:56.895Z,19.54
2022-09-02T02:02:26.002Z,19.43
2022-09-02T02:04:55.070Z,19.55
2022-09-02T02:07:25.155Z,19.56
2022-09-02T02:09:55.455Z,19.58
2022-09-02T02:12:25.437Z,19.56
2022-09-02T02:14:57.529Z,19.63
2022-09-02T02:17:26.328Z,19.69
2022-09-02T02:19:55.123Z,19.66
2022-09-02T02:22:24.454Z,19.72
2022-09-02T02:24:55.059Z,19.68
2022-09-02T02:27:23.919Z,19.68
2022-09-02T02:29:53.804Z,19.75
2022-09-02T02:32:26.327Z,19.66
2022-09-02T02:34:56.421Z,19.63
2022-09-02T02:37:25.716Z,19.63
2022-09-02T02:39:56.808Z,19.65
2022-09-02T02:42:27.608Z,19.53
2022-09-02T02:44:56.962Z,19.48
2022-09-02T02:47:27.054Z,19.49
2022-09-02T02:49:56.063Z,19.49
2022-09-02T02:52:24.872Z,19.52
2022-09-02T02:54:56.539Z,19.52
2022-09-02T02:57:25.535Z,19.51
2022-09-02T02:59:54.615Z,19.51
2022-09-02T03:02:24.234Z,19.28
2022-09-02T03:04:54.491Z,19.12
2022-09-02T03:07:24.719Z,18.96
2022-09-02T03:09:55.560Z,18.84
2022-09-02T03:12:25.792Z,18.81
2022-09-02T03:14:55.029Z,18.78
2022-09-02T03:17:24.011Z,18.67
2022-09-02T03:19:52.970Z,18.57
2022-09-02T03:22:22.078Z,18.46
2022-09-02T03:24:51.151Z,18.40
2022-09-02T03:27:21.651Z,18.35
2022-09-02T03:29:51.118Z,18.18
2022-09-02T03:32:19.997Z,18.22
2022-09-02T03:34:49.272Z,18.27
2022-09-02T03:37:19.013Z,18.46
2022-09-02T03:39:48.575Z,18.51
2022-09-02T03:42:19.565Z,18.59
2022-09-02T03:44:52.583Z,18.53
2022-09-02T03:47:24.471Z,18.65
2022-09-02T03:49:55.108Z,18.68
2022-09-02T03:52:26.015Z,18.67
2022-09-02T03:54:55.028Z,18.56
2022-09-02T03:57:26.097Z,18.40
2022-09-02T03:59:56.795Z,18.36
2022-09-02T04:02:26.265Z,18.34
2022-09-02T04:04:55.150Z,18.40
2022-09-02T04:07:24.337Z,18.57
2022-09-02T04:09:56.614Z,18.65
2022-09-02T04:12:32.177Z,18.78
2022-09-02T04:15:03.821Z,18.88
2022-09-02T04:17:33.630Z,18.94
2022-09-02T04:20:02.536Z,18.96
2022-09-02T04:22:35.073Z,18.98
2022-09-02T04:25:04.434Z,18.98
2022-09-02T04:27:34.147Z,19.01
2022-09-02T04:30:05.599Z,19.03
2022-09-02T04:32:40.716Z,19.01
2022-09-02T04:35:10.950Z,19.04
2022-09-02T04:37:41.020Z,19.10
2022-09-02T04:40:11.589Z,19.12
2022-09-02T04:42:40.776Z,19.10
2022-09-02T04:45:13.213Z,19.15
2022-09-02T04:47:42.170Z,19.13
2022-09-02T04:50:16.708Z,19.12
2022-09-02T04:53:00.199Z,19.12
2022-09-02T04:55:31.099Z,19.15
2022-09-02T04:58:01.911Z,19.08
2022-09-02T05:00:32.224Z,19.14
2022-09-02T05:03:01.371Z,19.17
2022-09-02T05:05:32.524Z,19.18
2022-09-02T05:08:04.773Z,19.17
2022-09-02T05:10:34.722Z,19.22
2022-09-02T05:13:03.620Z,19.14
2022-09-02T05:15:34.020Z,19.27
2022-09-02T05:18:04.310Z,19.30
2022-09-02T05:20:34.512Z,19.27
2022-09-02T05:23:03.610Z,19.28
2022-09-02T05:25:32.553Z,19.32
2022-09-02T05:28:02.046Z,19.36
2022-09-02T05:30:30.957Z,19.39
2022-09-02T05:33:01.493Z,19.44
2022-09-02T05:35:30.660Z,19.40
2022-09-02T05:38:01.105Z,19.46
2022-09-02T05:40:31.686Z,19.51
2022-09-02T05:43:00.794Z,19.61
2022-09-02T05:45:29.801Z,19.52
2022-09-02T05:47:58.794Z,19.62
2022-09-02T05:50:31.910Z,19.33
2022-09-02T05:53:01.386Z,19.56
2022-09-02T05:55:30.272Z,19.63
2022-09-02T05:57:59.534Z,19.68
2022-09-02T06:00:30.271Z,19.69
2022-09-02T06:03:02.556Z,19.73
2022-09-02T06:05:38.515Z,19.72
2022-09-02T06:08:17.555Z,19.66
2022-09-02T06:10:46.471Z,19.66
2022-09-02T06:13:22.989Z,19.70
2022-09-02T06:15:55.255Z,19.63
2022-09-02T06:18:27.598Z,19.73
2022-09-02T06:20:59.557Z,19.77
2022-09-02T06:23:36.210Z,19.80
2022-09-02T06:26:05.466Z,19.86
2022-09-02T06:28:34.868Z,19.91
2022-09-02T06:31:08.510Z,19.92
2022-09-02T06:33:39.355Z,20.00
2022-09-02T06:36:14.664Z,19.94
2022-09-02T06:38:46.599Z,20.13
2022-09-02T06:41:18.140Z,20.18
2022-09-02T06:43:47.865Z,20.14
2022-09-02T06:46:25.972Z,20.15
2022-09-02T06:48:58.056Z,20.22
2022-09-02T06:51:31.911Z,20.37
2022-09-02T06:54:03.052Z,20.45
2022-09-02T06:56:35.768Z,20.47
2022-09-02T06:59:05.777Z,20.53
2022-09-02T07:01:56.293Z,20.66
2022-09-02T07:04:43.347Z,20.78
2022-09-02T07:07:18.256Z,20.81
2022-09-02T07:10:03.580Z,20.85
2022-09-02T07:12:36.351Z,20.85
2022-09-02T07:15:10.737Z,20.88
2022-09-02T07:17:42.156Z,20.89
2022-09-02T07:20:15.661Z,20.86
2022-09-02T07:22:57.231Z,20.91
2022-09-02T07:25:28.856Z,20.90
2022-09-02T07:27:57.911Z,20.90
2022-09-02T07:30:27.734Z,20.84
2022-09-02T07:33:06.668Z,20.95
2022-09-02T07:35:37.194Z,20.98
2022-09-02T07:38:10.314Z,20.96
2022-09-02T07:40:41.388Z,20.93
2022-09-02T07:43:12.928Z,20.92
2022-09-02T07:45:44.782Z,20.86
2022-09-02T07:48:16.077Z,20.89
2022-09-02T07:50:47.627Z,20.94
2022-09-02T07:53:21.768Z,20.96
2022-09-02T07:55:51.696Z,21.01
2022-09-02T07:58:22.707Z,21.07
2022-09-02T08:00:52.912Z,21.13
2022-09-02T08:03:22.921Z,21.18
2022-09-02T08:05:55.719Z,21.22
2022-09-02T08:08:28.648Z,21.24
2022-09-02T08:10:58.144Z,21.27
2022-09-02T08:13:27.701Z,21.28
2022-09-02T08:15:57.351Z,21.20
2022-09-02T08:18:26.548Z,21.18
2022-09-02T08:20:55.938Z,20.99
2022-09-02T08:23:36.841Z,21.01
2022-09-02T08:26:07.560Z,21.08
2022-09-02T08:28:36.528Z,21.13
2022-09-02T08:31:08.855Z,21.23
2022-09-02T08:33:38.448Z,21.10
2022-09-02T08:36:11.273Z,21.17
2022-09-02T08:38:42.216Z,21.22
2022-09-02T08:41:19.487Z,21.22
2022-09-02T08:43:50.372Z,21.20
2022-09-02T08:46:20.222Z,21.29
2022-09-02T08:48:53.149Z,21.31
2022-09-02T08:51:23.303Z,21.34
2022-09-02T08:54:00.371Z,21.27
2022-09-02T08:56:29.542Z,21.35
2022-09-02T08:59:02.569Z,21.33
2022-09-02T09:01:44.407Z,21.36
2022-09-02T09:04:46.026Z,21.23
2022-09-02T09:07:26.382Z,21.37
2022-09-02T09:10:17.747Z,21.47
2022-09-02T09:13:03.005Z,21.33
2022-09-02T09:15:41.012Z,21.14
2022-09-02T09:18:13.399Z,21.32
2022-09-02T09:20:44.986Z,21.17
2022-09-02T09:23:26.997Z,21.31
2022-09-02T09:26:06.695Z,21.26
2022-09-02T09:28:42.534Z,21.31
2022-09-02T09:31:15.125Z,21.40
2022-09-02T09:33:57.279Z,21.42
2022-09-02T09:36:48.326Z,21.55
2022-09-02T09:39:26.217Z,21.44
2022-09-02T09:41:58.606Z,21.55
2022-09-02T09:44:40.593Z,21.67
2022-09-02T09:47:17.356Z,21.66
2022-09-02T09:49:47.469Z,21.70
2022-09-02T09:52:27.671Z,21.76
2022-09-02T09:55:14.191Z,21.91
2022-09-02T09:57:46.632Z,22.05
2022-09-02T10:00:21.722Z,22.08
2022-09-02T10:02:52.670Z,22.28
2022-09-02T10:05:32.502Z,22.43
2022-09-02T10:08:03.111Z,22.58
2022-09-02T10:10:34.502Z,22.72
2022-09-02T10:13:23.448Z,22.81
2022-09-02T10:16:07.095Z,22.92
2022-09-02T10:18:43.320Z,22.92
2022-09-02T10:43:06.508Z,23.46
2022-09-02T10:45:38.870Z,23.13
2022-09-02T10:48:29.825Z,22.92
2022-09-02T10:51:07.182Z,22.85
2022-09-02T10:53:48.344Z,22.77
2022-09-02T10:56:22.235Z,22.76
2022-09-02T11:01:33.821Z,22.50
2022-09-02T11:04:10.148Z,22.46
2022-09-02T11:07:02.100Z,22.43
2022-09-02T11:09:37.291Z,22.40
2022-09-02T11:12:11.311Z,22.43
2022-09-02T11:14:54.224Z,22.45
2022-09-02T11:17:32.531Z,22.48
2022-09-02T11:20:09.956Z,22.57
2022-09-02T11:22:46.671Z,22.66
2022-09-02T11:25:22.621Z,22.74
2022-09-02T11:28:00.996Z,22.86
2022-09-02T11:30:40.289Z,22.76
2022-09-02T11:33:17.447Z,22.86
2022-09-02T11:35:46.581Z,22.81
2022-09-02T11:38:34.464Z,22.91
2022-09-02T11:41:34.222Z,22.86
2022-09-02T11:44:36.435Z,22.87
2022-09-02T11:47:31.600Z,22.93
2022-09-02T11:50:22.145Z,22.88
2022-09-02T11:53:06.264Z,23.00
2022-09-02T11:55:38.910Z,23.07
2022-09-02T11:58:07.923Z,23.03
2022-09-02T12:00:58.616Z,22.96
2022-09-02T12:03:58.434Z,23.04
2022-09-02T12:06:21.990Z,23.15
2022-09-02T12:09:18.985Z,23.20
2022-09-02T12:11:55.205Z,23.31
2022-09-02T12:15:06.737Z,23.37
2022-09-02T12:18:07.283Z,23.36
2022-09-02T12:21:18.311Z,23.50
2022-09-02T12:24:22.204Z,23.46
2022-09-02T12:27:24.438Z,23.52
2022-09-02T12:29:54.007Z,23.50
2022-09-02T12:33:01.212Z,23.58
2022-09-02T12:35:51.774Z,23.62
2022-09-02T12:38:36.422Z,23.69
2022-09-02T12:41:29.770Z,23.48
2022-09-02T12:44:25.792Z,23.68
2022-09-02T12:47:02.772Z,23.68
2022-09-02T12:49:50.461Z,23.70
2022-09-02T12:52:44.627Z,23.76
2022-09-02T12:55:21.025Z,23.76
2022-09-02T12:57:52.729Z,23.61
2022-09-02T13:00:32.944Z,23.65
2022-09-02T13:03:19.477Z,23.59
2022-09-02T13:05:57.495Z,23.56
2022-09-02T13:09:05.462Z,23.57
2022-09-02T13:12:14.713Z,23.51
2022-09-02T13:15:04.357Z,23.45
2022-09-02T13:17:48.498Z,23.40
2022-09-02T13:20:55.132Z,23.43
2022-09-02T13:24:10.389Z,23.57
2022-09-02T13:27:08.720Z,23.62
2022-09-02T13:30:07.146Z,23.93
2022-09-02T13:32:37.660Z,24.15
2022-09-02T13:35:09.492Z,24.16
2022-09-02T13:37:40.519Z,24.27
2022-09-02T13:40:20.845Z,24.11
2022-09-02T13:42:53.563Z,24.01
2022-09-02T13:45:24.154Z,24.10
2022-09-02T13:47:55.273Z,23.95
2022-09-02T13:50:27.261Z,23.88
2022-09-02T13:55:53.384Z,23.84
2022-09-02T13:58:36.059Z,23.70
2022-09-02T14:01:26.242Z,23.58
2022-09-02T14:03:58.185Z,23.53
2022-09-02T14:06:29.834Z,23.29
2022-09-02T14:09:02.784Z,23.10
2022-09-02T14:11:34.542Z,22.96
2022-09-02T14:14:05.303Z,22.54
2022-09-02T14:16:36.038Z,22.08
2022-09-02T14:19:07.280Z,21.80
2022-09-02T14:21:38.215Z,21.69
2022-09-02T14:24:13.041Z,21.49
2022-09-02T14:26:44.804Z,21.25
2022-09-02T14:29:17.805Z,21.23
2022-09-02T14:31:48.085Z,21.18
2022-09-02T14:34:37.510Z,21.08
2022-09-02T14:37:21.153Z,20.82
2022-09-02T14:40:09.646Z,20.52
2022-09-02T14:42:46.930Z,20.33
2022-09-02T14:45:27.740Z,20.29
2022-09-02T14:47:58.131Z,20.28
2022-09-02T14:50:31.248Z,20.20
2022-09-02T14:53:03.828Z,20.07
2022-09-02T14:55:47.266Z,19.79
2022-09-02T14:58:16.855Z,19.61
2022-09-02T15:00:52.298Z,19.55
2022-09-02T15:03:22.138Z,19.30
2022-09-02T15:05:52.494Z,19.24
2022-09-02T15:08:22.078Z,19.00
2022-09-02T15:10:51.320Z,19.06
2022-09-02T15:13:27.918Z,19.08
2022-09-02T15:15:59.632Z,18.92
2022-09-02T15:18:28.878Z,18.80
2022-09-02T15:20:58.008Z,18.74
2022-09-02T15:23:28.373Z,18.62
2022-09-02T15:25:57.830Z,18.62
2022-09-02T15:28:26.816Z,18.41
2022-09-02T15:31:00.781Z,18.27
2022-09-02T15:33:30.692Z,18.38
2022-09-02T15:36:07.739Z,18.35
2022-09-02T15:38:37.883Z,18.33
2022-09-02T15:41:18.641Z,18.31
2022-09-02T15:43:49.132Z,18.33
2022-09-02T15:46:25.780Z,18.26
2022-09-02T15:48:59.034Z,18.12
2022-09-02T15:51:31.369Z,18.04
2022-09-02T15:54:01.939Z,17.95
2022-09-02T15:56:32.912Z,17.91
2022-09-02T15:59:03.695Z,17.88
2022-09-02T16:01:35.583Z,17.80
2022-09-02T16:04:05.275Z,17.78
2022-09-02T16:06:36.721Z,17.82
2022-09-02T16:09:05.978Z,17.77
2022-09-02T16:11:35.356Z,17.83
2022-09-02T16:14:04.486Z,17.85
2022-09-02T16:16:36.091Z,17.81
2022-09-02T16:19:07.202Z,17.91
2022-09-02T16:21:39.314Z,18.04
2022-09-02T16:24:09.123Z,18.12
2022-09-02T16:26:39.563Z,18.04
2022-09-02T16:29:10.473Z,18.06
2022-09-02T16:31:42.851Z,18.18
2022-09-02T16:34:13.658Z,18.12
2022-09-02T16:36:44.356Z,18.20
2022-09-02T16:39:14.634Z,18.24
2022-09-02T16:41:45.834Z,18.30
2022-09-02T16:44:17.478Z,18.30
2022-09-02T16:46:49.454Z,18.18
2022-09-02T16:49:20.187Z,18.21
2022-09-02T16:51:50.648Z,18.20
2022-09-02T16:54:31.287Z,18.06
2022-09-02T16:57:01.806Z,17.98
2022-09-02T16:59:31.800Z,17.87
2022-09-02T17:02:02.356Z,17.88
2022-09-02T17:04:31.329Z,17.79
2022-09-02T17:07:00.411Z,17.74
2022-09-02T17:09:29.446Z,17.72
2022-09-02T17:11:58.571Z,17.62
2022-09-02T17:14:27.609Z,17.57
2022-09-02T17:16:56.659Z,17.52
2022-09-02T17:19:32.142Z,17.42
2022-09-02T17:22:01.636Z,17.49
2022-09-02T17:24:31.844Z,17.53
2022-09-02T17:27:01.397Z,17.43
2022-09-02T17:29:48.664Z,17.43
2022-09-02T17:32:18.257Z,17.47
2022-09-02T17:34:51.077Z,17.35
2022-09-02T17:37:21.592Z,17.39
2022-09-02T17:39:51.312Z,17.40
2022-09-02T17:42:21.510Z,17.30
2022-09-02T17:44:50.600Z,17.26
2022-09-02T17:47:21.427Z,17.13
2022-09-02T17:49:52.135Z,17.03
2022-09-02T17:52:23.234Z,17.03
2022-09-02T17:54:53.475Z,16.96
2022-09-02T17:57:31.394Z,16.87
2022-09-02T18:00:08.410Z,16.87
2022-09-02T18:03:12.401Z,16.83
2022-09-02T18:05:57.956Z,16.80
2022-09-02T18:08:35.353Z,16.83
2022-09-02T18:11:07.413Z,16.88
2022-09-02T18:13:48.322Z,16.81
2022-09-02T18:16:32.451Z,16.87
2022-09-02T18:19:14.428Z,16.84
2022-09-02T18:21:54.688Z,16.87
2022-09-02T18:24:36.771Z,16.97
2022-09-02T18:27:12.444Z,16.74
2022-09-02T18:29:57.151Z,16.79
2022-09-02T18:32:45.353Z,16.65
2022-09-02T18:35:23.178Z,16.60
2022-09-02T18:38:02.295Z,16.56
2022-09-02T18:40:44.343Z,16.59
2022-09-02T18:43:22.277Z,16.63
2022-09-02T18:45:52.859Z,16.65
2022-09-02T18:48:27.004Z,16.50
2022-09-02T18:51:00.252Z,16.50
2022-09-02T18:53:41.122Z,16.53
2022-09-02T18:56:13.481Z,16.47
2022-09-02T18:58:48.144Z,16.54
2022-09-02T19:01:25.074Z,16.65
2022-09-02T19:03:54.565Z,16.79
2022-09-02T19:06:26.209Z,16.84
2022-09-02T19:08:59.104Z,16.82
2022-09-02T19:11:29.063Z,16.73
2022-09-02T19:14:03.027Z,16.81
2022-09-02T19:16:36.400Z,16.85
2022-09-02T19:19:06.637Z,16.90
2022-09-02T19:21:41.222Z,16.84
2022-09-02T19:24:14.798Z,16.78
2022-09-02T19:26:46.089Z,16.83
2022-09-02T19:29:17.631Z,16.67
2022-09-02T19:31:48.343Z,16.75
2022-09-02T19:34:19.790Z,16.67
2022-09-02T19:36:51.074Z,16.75
2022-09-02T19:39:21.778Z,16.76
2022-09-02T19:41:50.746Z,16.67
2022-09-02T19:44:20.467Z,16.74
2022-09-02T19:47:49.858Z,16.71
2022-09-02T19:49:39.084Z,16.74
2022-09-02T19:52:08.358Z,16.55
2022-09-02T19:54:39.068Z,16.69
2022-09-02T19:57:07.986Z,16.64
2022-09-02T19:59:36.853Z,16.63
2022-09-02T20:02:06.554Z,16.58
2022-09-02T20:04:35.500Z,16.58
2022-09-02T20:07:04.501Z,16.54
2022-09-02T20:09:33.465Z,16.65
2022-09-02T20:12:04.982Z,16.63
2022-09-02T20:14:36.344Z,16.52
2022-09-02T20:17:10.525Z,16.56
2022-09-02T20:19:43.506Z,16.62
2022-09-02T20:22:15.108Z,16.52
2022-09-02T20:24:44.453Z,16.45
2022-09-02T20:27:23.457Z,16.39
2022-09-02T20:30:03.608Z,16.38
2022-09-02T20:32:44.572Z,16.40
2022-09-02T20:35:33.569Z,16.36
2022-09-02T20:38:16.887Z,16.42
2022-09-02T20:40:55.195Z,16.38
2022-09-02T20:43:47.595Z,16.44
2022-09-02T20:46:28.017Z,16.45
2022-09-02T20:49:12.077Z,16.43
2022-09-02T20:51:48.194Z,16.37
2022-09-02T20:54:31.533Z,16.47
2022-09-02T20:57:07.592Z,16.49
2022-09-02T20:59:49.598Z,16.51
2022-09-02T21:02:21.883Z,16.58
2022-09-02T21:04:55.884Z,16.55
2022-09-02T21:07:28.030Z,16.58
2022-09-02T21:10:06.652Z,16.59
2022-09-02T21:12:42.917Z,16.58
2022-09-02T21:15:27.650Z,16.65
2022-09-02T21:18:03.558Z,16.51
2022-09-02T21:20:44.091Z,16.45
2022-09-02T21:23:21.617Z,16.31
2022-09-02T21:25:55.969Z,16.29
2022-09-02T21:28:33.929Z,16.30
2022-09-02T21:31:10.047Z,16.26
2022-09-02T21:33:38.933Z,16.20
2022-09-02T21:36:08.275Z,16.23
2022-09-02T21:38:41.310Z,16.21
2022-09-02T21:41:30.279Z,16.22
2022-09-02T21:44:06.602Z,16.31
2022-09-02T21:46:48.603Z,16.28
2022-09-02T21:49:32.477Z,16.35
2022-09-02T21:52:13.858Z,16.35
2022-09-02T21:54:59.109Z,16.39
2022-09-02T21:57:43.484Z,16.33
2022-09-02T22:00:16.099Z,16.39
2022-09-02T22:02:58.265Z,16.33
2022-09-02T22:05:43.301Z,16.31
2022-09-02T22:08:22.667Z,16.25
2022-09-02T22:11:02.629Z,16.25
2022-09-02T22:13:32.836Z,16.23
2022-09-02T22:16:16.379Z,16.34
2022-09-02T22:18:52.532Z,16.31
2022-09-02T22:21:30.517Z,16.29
2022-09-02T22:23:59.669Z,16.28
2022-09-02T22:26:38.425Z,16.22
2022-09-02T22:29:14.607Z,16.33
2022-09-02T22:31:45.999Z,16.38
2022-09-02T22:34:18.741Z,16.39
2022-09-02T22:37:01.788Z,16.40
2022-09-02T22:39:37.857Z,16.43
2022-09-02T22:42:13.872Z,16.42
2022-09-02T22:45:06.665Z,16.43
2022-09-02T22:47:55.108Z,16.27
2022-09-02T22:50:50.175Z,16.22
2022-09-02T22:53:19.111Z,16.18
2022-09-02T22:55:58.640Z,16.32
2022-09-02T22:58:59.667Z,16.14
2022-09-02T23:01:36.848Z,16.09
2022-09-02T23:04:23.515Z,16.05
2022-09-02T23:06:55.422Z,16.10
2022-09-02T23:09:24.291Z,16.13
2022-09-02T23:12:02.516Z,16.17
2022-09-02T23:14:42.019Z,16.15
2022-09-02T23:17:25.757Z,16.12
2022-09-02T23:20:05.216Z,16.08
2022-09-02T23:22:56.635Z,16.05
2022-09-02T23:25:35.699Z,16.11
2022-09-02T23:28:15.313Z,16.15
2022-09-02T23:31:03.129Z,16.12
2022-09-02T23:33:51.434Z,16.07
2022-09-02T23:36:35.327Z,16.02
2022-09-02T23:39:25.288Z,16.08
2022-09-02T23:42:00.869Z,16.03
2022-09-02T23:44:31.269Z,16.10
2022-09-02T23:47:13.336Z,16.07
2022-09-02T23:49:53.054Z,16.05
2022-09-02T23:52:33.771Z,15.97
2022-09-02T23:55:13.542Z,16.05
2022-09-02T23:58:05.379Z,16.01
